CSCL Fuzhou — ELYA7 — position and weather

sailwx.info

Track history (hours):
 
Tides and Currents Weather Stations Pressure Air Temp Water Temp Dewpoint Dewpoint Depression Visibility Wind Speed Wind Dir Waves Ship Positions

CSCL Fuzhou

Last reported at 2017-Jan-16 15:33 UTC. Time now 2017-Jan-17 19:09 UTC.
Position N 22°28' E 120°10'.

Length 207.4 m; beam 29.8 m; draft 11.4 m.

Type: Ship (hazmat cat A). MMSI: 636016483.

Date/timePositionNaut miles runAvg speedWind from/ knotsBaromVisibWave heightAir tempDewpointWater temp
2017-Jan-16 15:33N 22°28' E 120°10'1010.0
2017-Jan-16 14:33N 22°34' E 120°19'0 0.0
2017-Jan-16 13:30N 22°34' E 120°19'0 0.0
2017-Jan-16 12:30N 22°34' E 120°19'0 0.0
2017-Jan-16 11:30N 22°34' E 120°19'0 0.0
2017-Jan-16 10:30N 22°34' E 120°19'0 0.0
2017-Jan-16 09:30N 22°34' E 120°19'0 0.0
2017-Jan-16 08:30N 22°34' E 120°19'0 0.0
2017-Jan-16 07:30N 22°34' E 120°19'0 0.0
2017-Jan-16 06:30N 22°34' E 120°19'0 0.0
2017-Jan-16 05:30N 22°34' E 120°19'0 0.0
2017-Jan-16 04:18N 22°34' E 120°19'0 0.0
2017-Jan-16 03:30N 22°34' E 120°19'0 0.0
2017-Jan-16 02:30N 22°34' E 120°19'0 0.0
2017-Jan-16 01:30N 22°34' E 120°19'0 0.0
2017-Jan-16 00:30N 22°34' E 120°19'0 0.0
2017-Jan-15 23:30N 22°34' E 120°19'0 0.0
2017-Jan-15 22:30N 22°34' E 120°19'0 0.0
2017-Jan-15 21:30N 22°34' E 120°19'1 1.3
2017-Jan-15 20:33N 22°33' E 120°18'7 6.5
2017-Jan-15 19:33N 22°34' E 120°11'1918.8
2017-Jan-15 18:33N 22°50' E 120°01'  
2017-Jan-10 16:33N 35°05' E 139°42'1312.6
2017-Jan-10 15:33N 35°18' E 139°45'9 9.1
2017-Jan-10 14:32N 35°26' E 139°41'0 0.0
2017-Jan-10 13:32N 35°26' E 139°41'0 0.0
2017-Jan-10 12:32N 35°26' E 139°41'0 0.0
2017-Jan-10 11:32N 35°26' E 139°41'0 0.0
2017-Jan-10 10:32N 35°26' E 139°41'0 0.0
2017-Jan-10 09:32N 35°26' E 139°41'0 0.0
2017-Jan-10 08:32N 35°26' E 139°41'2 1.9
2017-Jan-10 07:33N 35°26' E 139°43'9 9.1
2017-Jan-10 06:34N 35°33' E 139°51'5 5.1
2017-Jan-10 05:32N 35°37' E 139°47'0 0.0
2017-Jan-10 04:32N 35°37' E 139°47'0 0.0
2017-Jan-10 03:32N 35°37' E 139°47'0 0.0
2017-Jan-10 02:29N 35°37' E 139°47'0 0.0
2017-Jan-10 01:32N 35°37' E 139°47'0 0.0
2017-Jan-10 00:29N 35°37' E 139°47'0 0.0
2017-Jan-09 23:32N 35°37' E 139°47'0 0.0
2017-Jan-09 22:32N 35°37' E 139°47'0 0.0
2017-Jan-09 21:32N 35°37' E 139°47'0 0.0
2017-Jan-09 20:32N 35°37' E 139°47'0 0.0
2017-Jan-09 19:29N 35°37' E 139°47'0 0.1
2017-Jan-09 18:32N 35°37' E 139°47'0 0.0
2017-Jan-09 17:31N 35°37' E 139°47'0 0.0
2017-Jan-09 16:31N 35°37' E 139°47'0 0.0
2017-Jan-09 15:31N 35°37' E 139°47'2 1.6
2017-Jan-09 14:33N 35°35' E 139°47'8 7.8
2017-Jan-09 13:33N 35°28' E 139°51'1211.7
2017-Jan-09 12:33N 35°17' E 139°45'1110.6
2017-Jan-09 11:33N 35°07' E 139°45'1010.2
2017-Jan-09 10:33N 34°57' E 139°42'  
Track history (hours):
 
Tides and Currents Weather Stations Pressure Air Temp Water Temp Dewpoint Dewpoint Depression Visibility Wind Speed Wind Dir Waves Ship Positions

CSCL Fuzhou

Last reported at 2017-Jan-16 15:33 UTC. Time now 2017-Jan-17 19:09 UTC.
Position N 22°28' E 120°10'.

Length 207.4 m; beam 29.8 m; draft 11.4 m.

Type: Ship (hazmat cat A). MMSI: 636016483.

Date/timePositionNaut miles runAvg speedWind from/ knotsBaromVisibWave heightAir tempDewpointWater temp
2017-Jan-16 15:33N 22°28' E 120°10'1010.0
2017-Jan-16 14:33N 22°34' E 120°19'0 0.0
2017-Jan-16 13:30N 22°34' E 120°19'0 0.0
2017-Jan-16 12:30N 22°34' E 120°19'0 0.0
2017-Jan-16 11:30N 22°34' E 120°19'0 0.0
2017-Jan-16 10:30N 22°34' E 120°19'0 0.0
2017-Jan-16 09:30N 22°34' E 120°19'0 0.0
2017-Jan-16 08:30N 22°34' E 120°19'0 0.0
2017-Jan-16 07:30N 22°34' E 120°19'0 0.0
2017-Jan-16 06:30N 22°34' E 120°19'0 0.0
2017-Jan-16 05:30N 22°34' E 120°19'0 0.0
2017-Jan-16 04:18N 22°34' E 120°19'0 0.0
2017-Jan-16 03:30N 22°34' E 120°19'0 0.0
2017-Jan-16 02:30N 22°34' E 120°19'0 0.0
2017-Jan-16 01:30N 22°34' E 120°19'0 0.0
2017-Jan-16 00:30N 22°34' E 120°19'0 0.0
2017-Jan-15 23:30N 22°34' E 120°19'0 0.0
2017-Jan-15 22:30N 22°34' E 120°19'0 0.0
2017-Jan-15 21:30N 22°34' E 120°19'1 1.3
2017-Jan-15 20:33N 22°33' E 120°18'7 6.5
2017-Jan-15 19:33N 22°34' E 120°11'1918.8
2017-Jan-15 18:33N 22°50' E 120°01'  
2017-Jan-10 16:33N 35°05' E 139°42'1312.6
2017-Jan-10 15:33N 35°18' E 139°45'9 9.1
2017-Jan-10 14:32N 35°26' E 139°41'0 0.0
2017-Jan-10 13:32N 35°26' E 139°41'0 0.0
2017-Jan-10 12:32N 35°26' E 139°41'0 0.0
2017-Jan-10 11:32N 35°26' E 139°41'0 0.0
2017-Jan-10 10:32N 35°26' E 139°41'0 0.0
2017-Jan-10 09:32N 35°26' E 139°41'0 0.0
2017-Jan-10 08:32N 35°26' E 139°41'2 1.9
2017-Jan-10 07:33N 35°26' E 139°43'9 9.1
2017-Jan-10 06:34N 35°33' E 139°51'5 5.1
2017-Jan-10 05:32N 35°37' E 139°47'0 0.0
2017-Jan-10 04:32N 35°37' E 139°47'0 0.0
2017-Jan-10 03:32N 35°37' E 139°47'0 0.0
2017-Jan-10 02:29N 35°37' E 139°47'0 0.0
2017-Jan-10 01:32N 35°37' E 139°47'0 0.0
2017-Jan-10 00:29N 35°37' E 139°47'0 0.0
2017-Jan-09 23:32N 35°37' E 139°47'0 0.0
2017-Jan-09 22:32N 35°37' E 139°47'0 0.0
2017-Jan-09 21:32N 35°37' E 139°47'0 0.0
2017-Jan-09 20:32N 35°37' E 139°47'0 0.0
2017-Jan-09 19:29N 35°37' E 139°47'0 0.1
2017-Jan-09 18:32N 35°37' E 139°47'0 0.0
2017-Jan-09 17:31N 35°37' E 139°47'0 0.0
2017-Jan-09 16:31N 35°37' E 139°47'0 0.0
2017-Jan-09 15:31N 35°37' E 139°47'2 1.6
2017-Jan-09 14:33N 35°35' E 139°47'8 7.8
2017-Jan-09 13:33N 35°28' E 139°51'1211.7
2017-Jan-09 12:33N 35°17' E 139°45'1110.6
2017-Jan-09 11:33N 35°07' E 139°45'1010.2
2017-Jan-09 10:33N 34°57' E 139°42'  

Dump ship's entire track history